Time;durP1;ratioP1;P1;durP2;ratioP2;P2;SDS_P1;SDS_P2;PMS_P1;PMS_P2;Temp;Humidity;BMP_temperature;BMP_pressure;BME280_temperature;BME280_humidity;BME280_pressure;Samples;Min_cycle;Max_cycle;Signal;HPM_P1;HPM_P2
2023/03/21 00:00:28;;;;;;;5.63;3.10;;;;;;;9.74;92.21;96476.44;5056776;28;20590;-68
2023/03/21 00:02:54;;;;;;;5.60;3.10;;;;;;;9.76;92.46;96477.91;5056393;28;20399;-67
2023/03/21 00:05:21;;;;;;;6.07;2.90;;;;;;;9.76;92.50;96475.28;5055597;28;20223;-68
2023/03/21 00:07:47;;;;;;;9.23;3.43;;;;;;;9.74;93.17;96465.91;5056789;28;20200;-68
2023/03/21 00:10:14;;;;;;;5.57;3.23;;;;;;;9.77;93.00;96469.00;5056095;28;20207;-68
2023/03/21 00:12:42;;;;;;;6.07;3.27;;;;;;;9.87;92.79;96468.84;5055862;28;20200;-68
2023/03/21 00:15:11;;;;;;;11.43;3.40;;;;;;;9.76;91.85;96462.13;5056074;28;20209;-68
2023/03/21 00:17:38;;;;;;;9.40;3.23;;;;;;;9.77;92.14;96463.75;5056386;28;20661;-68
2023/03/21 00:20:13;;;;;;;6.00;3.20;;;;;;;9.85;92.64;96469.00;5056578;28;20208;-67
2023/03/21 00:22:40;;;;;;;4.93;3.23;;;;;;;9.84;92.79;96466.56;5056145;28;20213;-68
2023/03/21 00:25:09;;;;;;;5.27;3.17;;;;;;;9.77;93.25;96463.75;5055801;28;20204;-68
2023/03/21 00:27:36;;;;;;;6.20;3.20;;;;;;;9.76;93.16;96463.91;5059140;28;20287;-68
2023/03/21 00:30:05;;;;;;;9.83;3.87;;;;;;;9.77;93.66;96458.47;5060804;28;20249;-69
2023/03/21 00:32:31;;;;;;;5.97;3.10;;;;;;;9.68;92.73;96455.22;5060302;28;20262;-69
2023/03/21 00:34:57;;;;;;;6.60;3.50;;;;;;;9.74;92.33;96453.56;5059399;28;20204;-68
2023/03/21 00:37:27;;;;;;;6.27;3.33;;;;;;;9.80;94.76;96449.44;5059860;28;20235;-67
2023/03/21 00:39:53;;;;;;;5.17;2.90;;;;;;;9.77;95.52;96452.41;5060046;28;21187;-69
2023/03/21 00:42:20;;;;;;;4.13;2.57;;;;;;;9.75;96.26;96455.22;5060174;28;20677;-66
2023/03/21 00:44:46;;;;;;;6.77;3.00;;;;;;;9.74;96.73;96456.19;5058771;28;20699;-65
2023/03/21 00:47:14;;;;;;;4.20;2.60;;;;;;;9.81;96.47;96443.19;5060254;28;20686;-66
2023/03/21 00:49:40;;;;;;;4.83;2.63;;;;;;;9.68;98.05;96443.69;5059812;28;20201;-67
2023/03/21 00:52:10;;;;;;;4.97;2.70;;;;;;;9.74;98.14;96437.78;5059685;28;20235;-68
2023/03/21 00:54:37;;;;;;;3.70;2.30;;;;;;;9.63;98.51;96439.91;5058724;28;20319;-66
2023/03/21 00:57:04;;;;;;;4.17;2.67;;;;;;;9.54;98.53;96437.47;5059737;28;20225;-66
2023/03/21 00:59:30;;;;;;;5.03;2.40;;;;;;;9.52;98.81;96437.66;5059638;28;20315;-68
2023/03/21 01:01:59;;;;;;;4.50;2.37;;;;;;;9.53;98.86;96435.81;5060005;28;20225;-67
2023/03/21 01:04:27;;;;;;;4.57;2.90;;;;;;;9.58;99.60;96433.53;5058754;28;20672;-67
2023/03/21 01:06:54;;;;;;;5.37;3.23;;;;;;;9.49;99.58;96431.88;5059144;28;20201;-67
2023/03/21 01:09:23;;;;;;;4.43;2.70;;;;;;;9.53;99.15;96420.84;5059566;28;20787;-67
2023/03/21 01:11:50;;;;;;;4.57;2.43;;;;;;;9.52;99.82;96431.53;5060277;28;20220;-68
2023/03/21 01:14:19;;;;;;;7.27;3.00;;;;;;;9.54;100.00;96424.31;5059082;28;20208;-68
2023/03/21 01:16:45;;;;;;;5.43;2.87;;;;;;;9.46;99.87;96424.34;5058626;28;20567;-68
2023/03/21 01:19:14;;;;;;;6.23;2.43;;;;;;;9.49;100.00;96426.63;5059146;28;20251;-68
2023/03/21 01:21:43;;;;;;;3.97;2.53;;;;;;;9.49;100.00;96424.81;5059605;28;20735;-68
2023/03/21 01:24:10;;;;;;;4.27;2.57;;;;;;;9.50;99.88;96430.91;5058841;28;20212;-68
2023/03/21 01:26:37;;;;;;;6.17;2.87;;;;;;;9.42;100.00;96415.09;5059185;28;20217;-68
2023/03/21 01:29:04;;;;;;;9.33;3.27;;;;;;;9.39;99.23;96421.50;5056945;28;20251;-68
2023/03/21 01:31:30;;;;;;;4.93;2.90;;;;;;;9.42;99.48;96417.72;5058265;28;20224;-68
2023/03/21 01:33:57;;;;;;;3.97;2.80;;;;;;;9.40;100.00;96419.72;5057793;28;20201;-68
2023/03/21 01:36:25;;;;;;;4.87;3.10;;;;;;;9.45;100.00;96420.06;5058582;28;20695;-67
2023/03/21 01:38:54;;;;;;;4.63;2.73;;;;;;;9.45;100.00;96420.06;5057726;28;20227;-68
2023/03/21 01:41:28;;;;;;;4.77;2.80;;;;;;;9.38;100.00;96416.44;5058598;28;21153;-66
2023/03/21 01:43:55;;;;;;;5.10;2.53;;;;;;;9.33;100.00;96416.94;5056699;28;20230;-67
2023/03/21 01:46:31;;;;;;;4.10;2.83;;;;;;;9.42;100.00;96410.69;5057278;28;20205;-66
2023/03/21 01:49:02;;;;;;;5.43;3.00;;;;;;;9.39;100.00;96415.44;5056956;28;20215;-67
2023/03/21 01:51:30;;;;;;;5.10;3.10;;;;;;;9.35;99.89;96408.88;5056798;28;20333;-68
2023/03/21 01:53:59;;;;;;;6.30;3.13;;;;;;;9.39;100.00;96421.50;5056522;28;20196;-68
2023/03/21 01:56:29;;;;;;;5.90;3.23;;;;;;;9.44;100.00;96418.41;5057055;28;20204;-66
2023/03/21 01:59:02;;;;;;;7.60;3.13;;;;;;;9.42;100.00;96412.47;5057871;28;20220;-66
2023/03/21 02:01:30;;;;;;;8.07;3.43;;;;;;;9.33;100.00;96410.84;5058659;28;20786;-66
2023/03/21 02:04:02;;;;;;;7.53;3.23;;;;;;;9.37;100.00;96412.19;5057452;28;20197;-68
2023/03/21 02:06:35;;;;;;;6.60;3.20;;;;;;;9.42;100.00;96404.59;5058167;28;20325;-68
2023/03/21 02:09:07;;;;;;;5.10;3.37;;;;;;;9.39;100.00;96416.25;5058613;28;20201;-67
2023/03/21 02:11:35;;;;;;;5.63;3.17;;;;;;;9.28;100.00;96403.47;5058208;28;20231;-67
2023/03/21 02:14:02;;;;;;;6.37;3.47;;;;;;;9.23;100.00;96404.94;5057800;28;20659;-67
2023/03/21 02:16:37;;;;;;;4.60;3.00;;;;;;;9.32;100.00;96407.41;5058531;28;20273;-67
2023/03/21 02:19:23;;;;;;;4.73;3.07;;;;;;;9.37;100.00;96396.41;5057887;28;20220;-67
2023/03/21 02:22:09;;;;;;;4.80;3.00;;;;;;;9.34;100.00;96401.97;5057787;28;20220;-68
2023/03/21 02:25:01;;;;;;;9.07;3.40;;;;;;;9.30;100.00;96404.09;5058495;28;20330;-68
2023/03/21 02:27:31;;;;;;;8.17;2.93;;;;;;;9.27;100.00;96399.19;5044714;28;20215;-68
2023/03/21 02:30:34;;;;;;;5.03;3.33;;;;;;;9.35;100.00;96398.34;5058925;28;20672;-68
2023/03/21 02:33:16;;;;;;;5.47;3.00;;;;;;;9.33;100.00;96392.44;5058385;28;20621;-67
2023/03/21 02:36:02;;;;;;;7.07;3.67;;;;;;;9.36;100.00;96392.94;5056982;28;20212;-68
2023/03/21 02:38:36;;;;;;;4.10;2.63;;;;;;;9.32;100.00;96382.94;5057714;28;20700;-67
2023/03/21 02:41:06;;;;;;;6.87;3.17;;;;;;;9.27;100.00;96393.94;5058186;28;20246;-68
2023/03/21 02:43:40;;;;;;;6.43;3.50;;;;;;;9.30;100.00;96390.16;5056754;28;20205;-67
2023/03/21 02:46:10;;;;;;;5.77;2.90;;;;;;;9.29;100.00;96380.59;5057595;28;20200;-68
2023/03/21 02:48:43;;;;;;;5.97;3.17;;;;;;;9.25;100.00;96379.28;5057068;28;20215;-68
2023/03/21 02:51:13;;;;;;;8.77;3.67;;;;;;;9.19;100.00;96378.16;5057224;28;20629;-66
2023/03/21 02:53:43;;;;;;;6.60;4.07;;;;;;;9.16;100.00;96382.91;5057215;28;21068;-66
2023/03/21 02:56:10;;;;;;;5.70;3.30;;;;;;;9.14;100.00;96379.66;5057915;28;20201;-66
2023/03/21 02:58:39;;;;;;;5.50;3.20;;;;;;;9.21;100.00;96370.91;5057326;28;20224;-68
2023/03/21 03:01:07;;;;;;;6.07;3.37;;;;;;;9.13;100.00;96378.00;5057444;28;20752;-67
2023/03/21 03:03:37;;;;;;;5.00;3.17;;;;;;;9.14;100.00;96377.03;5056855;28;20211;-67
2023/03/21 03:06:13;;;;;;;7.23;3.70;;;;;;;9.23;100.00;96368.94;5057050;28;20219;-68
2023/03/21 03:08:54;;;;;;;7.00;3.27;;;;;;;9.26;100.00;96375.69;5057349;28;20204;-67
2023/03/21 03:11:27;;;;;;;6.40;3.47;;;;;;;9.23;100.00;96368.94;5057699;28;20346;-68
2023/03/21 03:14:07;;;;;;;5.93;3.50;;;;;;;9.29;100.00;96367.47;5056585;28;20200;-68
2023/03/21 03:16:43;;;;;;;7.50;3.47;;;;;;;9.23;100.00;96361.06;5056992;28;20216;-66
2023/03/21 03:19:15;;;;;;;8.27;3.60;;;;;;;9.22;100.00;96363.88;5055581;28;20227;-66
2023/03/21 03:21:47;;;;;;;6.23;3.77;;;;;;;9.20;100.00;96365.81;5056522;28;20231;-67
2023/03/21 03:24:20;;;;;;;5.43;3.07;;;;;;;9.26;100.00;96367.81;5056035;28;20211;-67
2023/03/21 03:26:51;;;;;;;8.03;4.00;;;;;;;9.23;100.00;96363.69;5057323;28;20912;-67
2023/03/21 03:29:20;;;;;;;6.90;3.40;;;;;;;9.25;100.00;96371.41;5056602;28;20700;-68
2023/03/21 03:31:50;;;;;;;5.63;3.17;;;;;;;9.26;100.00;96365.16;5056763;28;20299;-67
2023/03/21 03:34:21;;;;;;;11.57;3.30;;;;;;;9.25;100.00;96367.00;5057329;28;20192;-67
2023/03/21 03:36:54;;;;;;;4.73;2.73;;;;;;;9.27;100.00;96374.72;5057171;28;20204;-67
2023/03/21 03:39:27;;;;;;;5.70;3.17;;;;;;;9.22;100.00;96366.50;5056198;28;20232;-67
2023/03/21 03:41:58;;;;;;;6.33;3.37;;;;;;;9.14;100.00;96366.50;5056439;28;20220;-67
2023/03/21 03:44:27;;;;;;;6.73;3.20;;;;;;;9.09;100.00;96374.88;5056176;28;20200;-67
2023/03/21 03:46:59;;;;;;;6.67;3.57;;;;;;;9.15;100.00;96368.97;5056291;28;20212;-67
2023/03/21 03:49:29;;;;;;;5.43;3.20;;;;;;;9.09;100.00;96366.97;5056710;28;20205;-67
2023/03/21 03:52:01;;;;;;;6.47;3.43;;;;;;;9.14;100.00;96363.88;5056627;28;21016;-68
2023/03/21 03:54:33;;;;;;;6.13;3.23;;;;;;;9.15;100.00;96360.25;5055333;28;20200;-68
2023/03/21 03:57:00;;;;;;;5.33;2.73;;;;;;;9.00;100.00;96359.28;5056701;28;20311;-68
2023/03/21 03:59:27;;;;;;;5.10;2.83;;;;;;;9.05;100.00;96353.50;5056088;28;20228;-68
2023/03/21 04:01:53;;;;;;;5.80;2.90;;;;;;;8.98;100.00;96350.72;5055947;28;20216;-68
2023/03/21 04:04:21;;;;;;;7.40;3.53;;;;;;;8.97;100.00;96361.41;5055731;28;20212;-68
2023/03/21 04:06:50;;;;;;;5.67;3.10;;;;;;;8.98;100.00;96366.50;5056275;28;20210;-68
2023/03/21 04:09:17;;;;;;;10.50;3.63;;;;;;;8.98;100.00;96366.50;5056363;28;20211;-67
2023/03/21 04:11:45;;;;;;;5.57;3.57;;;;;;;9.07;100.00;96364.69;5056090;28;20231;-67
2023/03/21 04:14:11;;;;;;;6.47;4.00;;;;;;;8.94;100.00;96370.44;5059342;28;20204;-67
2023/03/21 04:16:38;;;;;;;6.63;3.73;;;;;;;9.01;100.00;96367.97;5057499;28;20309;-67
2023/03/21 04:19:04;;;;;;;5.67;3.77;;;;;;;9.02;100.00;96369.63;5056281;28;20216;-67
2023/03/21 04:21:31;;;;;;;6.13;3.87;;;;;;;9.02;100.00;96365.16;5056494;28;20227;-67
2023/03/21 04:23:58;;;;;;;7.13;4.53;;;;;;;8.99;100.00;96362.88;5055770;28;20196;-67
2023/03/21 04:26:31;;;;;;;7.13;4.17;;;;;;;9.02;100.00;96365.16;5055843;28;20297;-67
2023/03/21 04:29:00;;;;;;;8.20;4.10;;;;;;;9.10;100.00;96354.69;5056662;28;20196;-67
2023/03/21 04:31:29;;;;;;;8.00;4.00;;;;;;;9.04;100.00;96367.63;5056355;28;20238;-67
2023/03/21 04:33:56;;;;;;;6.70;3.73;;;;;;;9.06;100.00;96366.47;5055291;28;20201;-67
2023/03/21 04:36:29;;;;;;;8.27;4.07;;;;;;;9.01;100.00;96360.91;5056385;28;20204;-67
2023/03/21 04:38:59;;;;;;;7.03;3.90;;;;;;;8.97;100.00;96367.47;5056462;28;20229;-67
2023/03/21 04:41:26;;;;;;;9.70;4.13;;;;;;;9.01;100.00;96360.91;5056054;28;20315;-67
2023/03/21 04:43:52;;;;;;;6.83;3.77;;;;;;;9.01;100.00;96363.53;5054961;28;20197;-67
2023/03/21 04:46:20;;;;;;;9.50;4.27;;;;;;;9.08;100.00;96359.28;5056713;28;20580;-67
2023/03/21 04:48:47;;;;;;;8.23;4.23;;;;;;;9.02;100.00;96359.91;5056213;28;20193;-67
2023/03/21 04:51:14;;;;;;;8.73;3.80;;;;;;;9.00;100.00;96359.28;5055995;28;20252;-67
2023/03/21 04:53:43;;;;;;;6.67;3.57;;;;;;;9.01;100.00;96358.25;5055587;28;20723;-67
2023/03/21 04:56:10;;;;;;;6.63;3.90;;;;;;;8.99;100.00;96352.38;5055878;28;20205;-67
2023/03/21 04:58:39;;;;;;;5.53;3.80;;;;;;;8.97;100.00;96354.31;5055710;28;20231;-67
2023/03/21 05:01:06;;;;;;;9.73;3.87;;;;;;;8.94;100.00;96354.66;5056400;28;20221;-67
2023/03/21 05:03:38;;;;;;;10.57;5.07;;;;;;;9.00;100.00;96356.66;5055298;28;20204;-68
2023/03/21 05:06:07;;;;;;;8.33;4.73;;;;;;;8.93;100.00;96355.66;5055958;28;20295;-67
2023/03/21 05:08:34;;;;;;;8.37;4.33;;;;;;;8.85;100.00;96353.03;5056019;28;20208;-67
2023/03/21 05:11:00;;;;;;;5.83;3.43;;;;;;;8.95;100.00;96353.69;5055731;28;20232;-68
2023/03/21 05:13:27;;;;;;;10.57;3.90;;;;;;;8.93;100.00;96358.28;5057887;28;20211;-68
2023/03/21 05:15:53;;;;;;;7.93;3.43;;;;;;;8.94;100.00;96354.66;5059207;28;20228;-67
2023/03/21 05:18:24;;;;;;;5.87;3.43;;;;;;;8.93;100.00;96352.22;5059140;28;20204;-66
2023/03/21 05:20:54;;;;;;;5.23;3.20;;;;;;;9.04;100.00;96359.75;5059092;28;20224;-68
2023/03/21 05:23:21;;;;;;;4.60;3.03;;;;;;;8.88;100.00;96357.13;5058656;28;21358;-68
2023/03/21 05:25:47;;;;;;;6.30;3.63;;;;;;;8.87;100.00;96366.00;5058808;28;20209;-67
2023/03/21 05:28:17;;;;;;;10.93;4.47;;;;;;;8.90;100.00;96365.69;5058903;28;20211;-66
2023/03/21 05:30:43;;;;;;;13.70;5.13;;;;;;;8.87;100.00;96366.84;5059023;28;20293;-65
2023/03/21 05:33:10;;;;;;;10.00;4.43;;;;;;;8.88;100.00;96355.31;5059332;28;20211;-65
2023/03/21 05:35:36;;;;;;;9.97;5.10;;;;;;;8.90;100.00;96355.97;5058320;28;20212;-67
2023/03/21 05:38:04;;;;;;;7.47;4.20;;;;;;;9.00;100.00;96356.66;5058894;28;20681;-68
2023/03/21 05:40:31;;;;;;;10.20;5.40;;;;;;;8.84;100.00;96355.81;5058893;28;20239;-66
2023/03/21 05:42:57;;;;;;;8.27;3.80;;;;;;;8.90;100.00;96350.72;5059614;28;20199;-66
2023/03/21 05:45:24;;;;;;;7.10;3.50;;;;;;;8.93;100.00;96360.09;5057681;28;20227;-68
2023/03/21 05:47:51;;;;;;;6.00;3.47;;;;;;;8.94;100.00;96361.75;5059532;28;20200;-67
2023/03/21 05:50:17;;;;;;;6.87;3.30;;;;;;;8.92;100.00;96364.50;5058941;28;20918;-67
2023/03/21 05:52:44;;;;;;;8.63;3.90;;;;;;;8.97;100.00;96366.66;5058023;28;20955;-67
2023/03/21 05:55:12;;;;;;;8.67;4.20;;;;;;;8.98;100.00;96371.75;5058268;28;20608;-68
2023/03/21 05:57:39;;;;;;;7.97;4.40;;;;;;;8.87;100.00;96364.19;5060065;28;20209;-68
2023/03/21 06:00:08;;;;;;;7.80;4.40;;;;;;;9.05;100.00;96367.50;5058338;28;20688;-68
2023/03/21 06:02:35;;;;;;;6.20;3.83;;;;;;;9.06;100.00;96371.75;5057868;28;20205;-67
2023/03/21 06:05:01;;;;;;;8.50;4.07;;;;;;;9.10;100.00;96368.63;5058238;28;21448;-68
2023/03/21 06:07:28;;;;;;;7.37;4.30;;;;;;;9.08;100.00;96364.53;5058456;28;20691;-68
2023/03/21 06:09:54;;;;;;;14.20;4.93;;;;;;;9.07;100.00;96362.88;5058293;28;20263;-69
2023/03/21 06:12:22;;;;;;;9.90;4.60;;;;;;;9.21;100.00;96360.41;5058305;28;20228;-68
2023/03/21 06:14:49;;;;;;;7.33;4.30;;;;;;;9.23;100.00;96357.63;5057996;28;20716;-68
2023/03/21 06:17:15;;;;;;;5.33;3.57;;;;;;;9.23;100.00;96361.06;5058131;28;20553;-68
2023/03/21 06:19:42;;;;;;;8.23;3.83;;;;;;;9.23;100.00;96363.69;5057600;28;20647;-68
2023/03/21 06:22:08;;;;;;;5.83;3.70;;;;;;;9.27;100.00;96361.56;5054947;28;20657;-68
2023/03/21 06:24:35;;;;;;;12.93;4.50;;;;;;;9.27;100.00;96366.81;5056759;28;20204;-69
2023/03/21 06:27:01;;;;;;;13.33;4.70;;;;;;;9.28;100.00;96373.72;5057695;28;21300;-67
2023/03/21 06:29:30;;;;;;;8.13;4.63;;;;;;;9.36;98.39;96371.88;5057749;28;20656;-69
2023/03/21 06:31:57;;;;;;;8.73;4.53;;;;;;;9.44;98.81;96374.50;5057433;28;20776;-68
2023/03/21 06:34:23;;;;;;;8.03;4.10;;;;;;;9.51;99.92;96382.53;5056103;28;20216;-67
2023/03/21 06:36:51;;;;;;;8.57;4.60;;;;;;;9.38;98.23;96379.59;5055805;28;20211;-66
2023/03/21 06:39:17;;;;;;;9.97;4.23;;;;;;;9.53;97.01;96381.41;5057737;28;20233;-69
2023/03/21 06:41:44;;;;;;;8.20;4.60;;;;;;;9.46;96.81;96371.72;5057535;28;20235;-68
2023/03/21 06:44:10;;;;;;;11.50;4.67;;;;;;;9.37;96.80;96376.16;5057118;28;20204;-69
2023/03/21 06:46:38;;;;;;;8.07;4.57;;;;;;;9.57;97.03;96372.22;5057158;28;20208;-69
2023/03/21 06:49:05;;;;;;;9.60;4.70;;;;;;;9.62;95.94;96369.88;5057811;28;20212;-66
2023/03/21 06:51:31;;;;;;;9.17;5.13;;;;;;;9.70;97.00;96375.13;5056848;28;20704;-69
2023/03/21 06:53:58;;;;;;;9.73;5.13;;;;;;;9.78;95.97;96375.91;5056733;28;20204;-67
2023/03/21 06:56:24;;;;;;;11.70;5.43;;;;;;;9.65;96.85;96371.34;5057199;28;20220;-68
2023/03/21 06:58:51;;;;;;;8.93;4.53;;;;;;;9.57;95.80;96376.63;5056573;28;20200;-69
2023/03/21 07:01:17;;;;;;;10.40;5.53;;;;;;;9.81;95.14;96380.03;5056990;28;20250;-69
2023/03/21 07:03:46;;;;;;;9.47;5.20;;;;;;;10.01;96.77;96378.69;5056668;28;20219;-67
2023/03/21 07:06:12;;;;;;;9.73;5.17;;;;;;;9.98;95.65;96377.22;5056763;28;20219;-68
2023/03/21 07:08:40;;;;;;;14.80;7.40;;;;;;;10.02;95.34;96382.97;5056460;28;20236;-67
2023/03/21 07:11:07;;;;;;;16.53;7.90;;;;;;;9.94;94.63;96372.41;5056249;28;20217;-67
2023/03/21 07:13:34;;;;;;;16.77;7.27;;;;;;;10.18;94.56;96369.72;5056677;28;20551;-68
2023/03/21 07:16:00;;;;;;;16.27;5.33;;;;;;;10.27;93.12;96366.06;5057000;28;20212;-68
2023/03/21 07:18:27;;;;;;;9.07;5.13;;;;;;;10.45;94.12;96359.53;5056257;28;20200;-68
2023/03/21 07:20:55;;;;;;;10.73;4.97;;;;;;;10.60;92.38;96365.72;5056430;28;20235;-68
2023/03/21 07:23:24;;;;;;;10.33;4.87;;;;;;;10.66;91.02;96362.38;5057051;28;21383;-68
2023/03/21 07:25:52;;;;;;;9.50;4.47;;;;;;;10.74;90.75;96363.13;5055510;28;20196;-68
2023/03/21 07:28:19;;;;;;;11.27;4.63;;;;;;;10.37;89.46;96368.31;5056459;28;20205;-68
2023/03/21 07:30:53;;;;;;;6.27;3.83;;;;;;;10.51;89.01;96361.47;5056072;28;20221;-69
2023/03/21 07:33:19;;;;;;;10.70;4.40;;;;;;;10.46;88.46;96374.34;5056441;28;20204;-68
2023/03/21 07:35:46;;;;;;;9.80;4.23;;;;;;;10.46;88.31;96366.44;5056455;28;20201;-65
2023/03/21 07:38:15;;;;;;;7.43;4.33;;;;;;;10.69;88.48;96365.50;5057617;28;20201;-67
2023/03/21 07:40:42;;;;;;;8.83;4.67;;;;;;;10.80;88.46;96372.19;5057902;28;20239;-68
2023/03/21 07:43:08;;;;;;;10.57;5.30;;;;;;;10.73;86.65;96368.59;5056604;28;20215;-67
2023/03/21 07:45:35;;;;;;;8.30;4.60;;;;;;;10.63;86.50;96368.81;5056148;28;20219;-67
2023/03/21 07:48:02;;;;;;;12.47;4.77;;;;;;;10.72;86.39;96369.59;5055746;28;20887;-69
2023/03/21 07:50:28;;;;;;;8.77;4.80;;;;;;;10.89;87.01;96364.03;5054221;28;20216;-69
2023/03/21 07:52:55;;;;;;;10.20;4.70;;;;;;;10.93;86.15;96376.72;5054640;28;20222;-68
2023/03/21 07:55:23;;;;;;;10.27;4.30;;;;;;;11.26;84.46;96367.53;5056075;28;20560;-67
2023/03/21 07:57:50;;;;;;;5.50;4.23;;;;;;;11.28;84.13;96373.44;5056248;28;20326;-69
2023/03/21 08:00:21;;;;;;;10.33;4.50;;;;;;;11.49;84.14;96367.50;5056611;28;20224;-69
2023/03/21 08:02:49;;;;;;;9.97;4.10;;;;;;;11.52;82.84;96373.28;5056738;28;20208;-67
2023/03/21 08:05:17;;;;;;;15.27;5.03;;;;;;;11.59;84.35;96368.91;5055789;28;20244;-70
2023/03/21 08:07:45;;;;;;;7.80;4.57;;;;;;;11.74;81.26;96364.47;5052775;28;20240;-67
2023/03/21 08:10:11;;;;;;;10.50;4.70;;;;;;;11.74;81.08;96367.91;5055977;28;20325;-69
2023/03/21 08:12:39;;;;;;;7.10;4.27;;;;;;;11.64;82.12;96369.19;5054986;28;20220;-67
2023/03/21 08:15:07;;;;;;;12.90;4.47;;;;;;;11.62;81.47;96365.91;5054829;28;20224;-69
2023/03/21 08:17:36;;;;;;;8.17;4.17;;;;;;;11.38;82.66;96362.63;5055027;28;20211;-68
2023/03/21 08:20:06;;;;;;;12.13;4.40;;;;;;;11.76;83.07;96365.09;5054598;28;20232;-68
2023/03/21 08:22:33;;;;;;;8.00;4.33;;;;;;;11.90;81.89;96361.66;5055044;28;20197;-69
2023/03/21 08:25:00;;;;;;;7.83;4.40;;;;;;;11.77;81.69;96366.75;5054171;28;20207;-69
2023/03/21 08:27:26;;;;;;;8.43;4.33;;;;;;;12.03;82.15;96361.81;5055713;28;20197;-68
2023/03/21 08:29:54;;;;;;;9.57;4.23;;;;;;;12.14;80.86;96354.25;5055475;28;20211;-68
2023/03/21 08:32:27;;;;;;;8.70;4.27;;;;;;;11.88;81.64;96359.19;5054382;28;20274;-68
2023/03/21 08:34:53;;;;;;;10.57;4.57;;;;;;;12.01;81.67;96355.91;5054982;28;20288;-69
2023/03/21 08:37:20;;;;;;;8.77;4.30;;;;;;;12.20;81.10;96354.34;5055319;28;20669;-68
2023/03/21 08:39:46;;;;;;;11.97;6.03;;;;;;;12.39;80.59;96356.41;5054951;28;20220;-69
2023/03/21 08:42:13;;;;;;;9.03;5.10;;;;;;;12.30;79.89;96354.06;5056015;28;20220;-67
2023/03/21 08:44:40;;;;;;;8.40;4.57;;;;;;;12.15;80.13;96355.91;5053469;28;20208;-69
2023/03/21 08:47:08;;;;;;;11.70;4.60;;;;;;;12.42;78.76;96353.41;5054708;28;20327;-68
2023/03/21 08:49:34;;;;;;;7.77;3.87;;;;;;;12.53;76.71;96360.03;5058529;28;20222;-68
2023/03/21 08:52:01;;;;;;;7.15;4.25;;;;;;;12.85;75.39;96355.09;5055485;28;20227;-68
2023/03/21 08:54:28;;;;;;;7.97;3.87;;;;;;;12.48;75.65;96357.13;5056405;28;20200;-68
2023/03/21 08:56:55;;;;;;;9.15;3.42;;;;;;;12.78;75.68;96360.31;5056851;28;20211;-68
2023/03/21 08:59:21;;;;;;;6.93;3.70;;;;;;;12.73;74.75;96356.63;5058648;28;20209;-68
2023/03/21 09:01:48;;;;;;;9.02;3.70;;;;;;;12.48;75.50;96355.31;5058041;28;20219;-68
2023/03/21 09:04:17;;;;;;;7.28;3.65;;;;;;;12.77;75.67;96347.31;5057330;28;20213;-68
2023/03/21 09:06:47;;;;;;;7.90;3.90;;;;;;;13.10;76.93;96349.28;5058302;28;20200;-69
2023/03/21 09:09:14;;;;;;;5.38;3.10;;;;;;;13.40;71.13;96348.13;5058127;28;20211;-68
2023/03/21 09:11:41;;;;;;;6.40;3.53;;;;;;;13.36;69.98;96348.72;5057383;28;20228;-67
2023/03/21 09:14:08;;;;;;;6.97;3.08;;;;;;;13.28;70.07;96340.91;5056493;28;20688;-69
2023/03/21 09:16:35;;;;;;;7.65;3.00;;;;;;;13.52;68.97;96342.13;5057023;28;20204;-69
2023/03/21 09:19:03;;;;;;;5.50;2.93;;;;;;;13.78;68.39;96339.66;5058585;28;20208;-70
2023/03/21 09:21:31;;;;;;;7.93;4.00;;;;;;;12.92;70.49;96342.81;5058054;28;20597;-68
2023/03/21 09:23:59;;;;;;;4.97;3.40;;;;;;;13.02;70.36;96348.59;5058000;28;20285;-67
2023/03/21 09:26:26;;;;;;;7.45;3.70;;;;;;;13.38;68.87;96343.03;5058266;28;20204;-67
2023/03/21 09:28:54;;;;;;;7.93;3.60;;;;;;;13.72;68.56;96339.59;5057433;28;21011;-69
2023/03/21 09:31:21;;;;;;;7.05;3.00;;;;;;;13.37;67.56;96334.47;5058369;28;20231;-69
2023/03/21 09:33:48;;;;;;;8.82;4.07;;;;;;;13.35;67.22;96339.13;5055236;28;20233;-67
2023/03/21 09:36:18;;;;;;;12.35;4.10;;;;;;;13.55;67.84;96335.63;5056920;28;20207;-67
2023/03/21 09:38:46;;;;;;;7.93;3.63;;;;;;;13.55;66.19;96339.06;5057425;28;20208;-68
2023/03/21 09:41:27;;;;;;;7.93;3.55;;;;;;;13.96;65.27;96326.72;5056297;28;20232;-67
2023/03/21 09:44:09;;;;;;;4.60;2.70;;;;;;;14.35;63.34;96321.66;5056798;28;20219;-68
2023/03/21 09:46:42;;;;;;;5.97;2.75;;;;;;;14.23;62.77;96328.50;5057809;28;20200;-68
2023/03/21 09:49:15;;;;;;;5.57;2.70;;;;;;;14.25;63.51;96321.19;5058524;28;20703;-69
2023/03/21 09:51:47;;;;;;;4.70;2.63;;;;;;;14.12;63.70;96326.44;5057658;28;20727;-69
2023/03/21 09:54:21;;;;;;;4.30;2.47;;;;;;;14.49;62.74;96329.47;5056502;28;20235;-69
2023/03/21 09:56:51;;;;;;;6.00;2.97;;;;;;;14.29;63.57;96320.59;5055797;28;20207;-68
2023/03/21 09:59:22;;;;;;;5.70;2.58;;;;;;;14.62;63.72;96320.72;5057651;28;20315;-68
2023/03/21 10:01:49;;;;;;;5.57;2.97;;;;;;;14.72;61.97;96314.81;5057280;28;20337;-69
2023/03/21 10:04:19;;;;;;;8.65;3.40;;;;;;;14.80;61.06;96312.03;5057095;28;20216;-69
2023/03/21 10:06:53;;;;;;;5.20;2.67;;;;;;;14.97;62.90;96315.91;5056956;28;21152;-69
2023/03/21 10:09:23;;;;;;;5.20;2.70;;;;;;;15.13;62.23;96312.88;5057018;28;20299;-68
2023/03/21 10:11:53;;;;;;;6.45;2.53;;;;;;;15.25;59.81;96305.97;5057803;28;20216;-67
2023/03/21 10:14:25;;;;;;;4.38;2.40;;;;;;;15.13;62.03;96310.22;5057244;28;20211;-68
2023/03/21 10:16:56;;;;;;;5.03;2.42;;;;;;;14.90;61.11;96312.41;5057282;28;20570;-68
2023/03/21 10:19:23;;;;;;;6.32;2.90;;;;;;;14.68;61.34;96308.28;5057066;28;20232;-68
2023/03/21 10:21:51;;;;;;;4.20;2.30;;;;;;;14.74;62.51;96302.19;5057577;28;20224;-69
2023/03/21 10:24:22;;;;;;;5.72;2.95;;;;;;;15.05;62.57;96299.78;5055781;28;20245;-68
2023/03/21 10:26:51;;;;;;;4.88;2.78;;;;;;;15.05;63.15;96293.69;5056146;28;20205;-69
2023/03/21 10:29:22;;;;;;;5.72;2.58;;;;;;;15.01;60.70;96298.56;5056041;28;20207;-69
2023/03/21 10:31:50;;;;;;;6.38;2.47;;;;;;;14.89;63.48;96288.75;5055873;28;20609;-68
2023/03/21 10:34:24;;;;;;;6.93;2.85;;;;;;;14.88;62.49;96290.59;5054691;28;20215;-68
2023/03/21 10:36:51;;;;;;;5.72;3.17;;;;;;;15.18;60.86;96288.38;5056581;28;21096;-68
2023/03/21 10:39:26;;;;;;;6.85;3.25;;;;;;;15.39;60.34;96287.19;5055187;28;20216;-69
2023/03/21 10:41:53;;;;;;;5.00;2.80;;;;;;;15.24;61.36;96291.06;5054638;28;20226;-69
2023/03/21 10:44:21;;;;;;;5.55;3.20;;;;;;;15.15;61.01;96286.13;5056387;28;20401;-68
2023/03/21 10:46:52;;;;;;;4.85;2.97;;;;;;;15.27;61.76;96278.22;5056095;28;20774;-68
2023/03/21 10:49:20;;;;;;;5.38;3.03;;;;;;;15.05;62.69;96278.56;5056634;28;20208;-69
2023/03/21 10:51:49;;;;;;;5.82;3.20;;;;;;;15.48;61.36;96279.84;5056901;28;20304;-67
2023/03/21 10:54:20;;;;;;;7.13;3.78;;;;;;;15.81;60.00;96277.91;5056480;28;20211;-67
2023/03/21 10:56:55;;;;;;;4.63;3.05;;;;;;;16.03;58.98;96283.59;5055832;28;20208;-67
2023/03/21 10:59:23;;;;;;;4.63;2.85;;;;;;;15.71;63.88;96272.25;5056805;28;20204;-69
2023/03/21 11:01:54;;;;;;;12.95;5.22;;;;;;;16.20;58.88;96271.44;5056315;28;20224;-69
2023/03/21 11:04:22;;;;;;;4.93;3.00;;;;;;;16.14;58.62;96277.63;5055751;28;20261;-69
2023/03/21 11:06:51;;;;;;;7.10;3.50;;;;;;;16.02;58.58;96262.53;5056308;28;20287;-69
2023/03/21 11:09:22;;;;;;;5.45;3.30;;;;;;;15.57;60.12;96281.25;5056092;28;20204;-69
2023/03/21 11:11:54;;;;;;;6.05;3.30;;;;;;;15.65;60.58;96270.41;5055696;28;20221;-70
2023/03/21 11:14:31;;;;;;;5.07;3.70;;;;;;;15.63;60.96;96267.97;5055892;28;20589;-67
2023/03/21 11:16:58;;;;;;;7.95;3.35;;;;;;;15.79;60.29;96272.81;5055946;28;20211;-69
2023/03/21 11:19:31;;;;;;;5.40;3.22;;;;;;;15.77;61.29;96272.22;5055371;28;20215;-69
2023/03/21 11:21:57;;;;;;;6.25;3.50;;;;;;;16.13;59.02;96260.03;5054179;28;20295;-68
2023/03/21 11:24:29;;;;;;;7.90;3.60;;;;;;;15.96;59.00;96268.69;5054962;28;20204;-68
2023/03/21 11:26:58;;;;;;;6.13;3.63;;;;;;;15.87;59.49;96260.13;5056218;28;20436;-68
2023/03/21 11:29:30;;;;;;;5.55;3.10;;;;;;;15.97;60.11;96252.53;5055981;28;20207;-69
2023/03/21 11:32:01;;;;;;;6.32;3.47;;;;;;;16.62;59.39;96258.41;5056400;28;20220;-68
2023/03/21 11:34:33;;;;;;;5.22;3.38;;;;;;;16.73;58.09;96252.41;5055045;28;20623;-68
2023/03/21 11:37:02;;;;;;;7.10;3.60;;;;;;;16.85;58.78;96255.19;5055171;28;20240;-68
2023/03/21 11:39:38;;;;;;;4.18;2.65;;;;;;;16.67;55.99;96257.75;5055663;28;20204;-69
2023/03/21 11:42:24;;;;;;;7.93;3.28;;;;;;;16.18;57.68;96256.75;5055556;28;20361;-69